Time;durP1;ratioP1;P1;durP2;ratioP2;P2;SDS_P1;SDS_P2;PMS_P1;PMS_P2;Temp;Humidity;BMP_temperature;BMP_pressure;BME280_temperature;BME280_humidity;BME280_pressure;Samples;Min_cycle;Max_cycle;Signal;HPM_P1;HPM_P2
2021/04/28 00:02:08;;;;;;;22.63;14.00;;;10.70;99.90;;;;;;5009508;28;20951;-55
2021/04/28 00:04:35;;;;;;;22.13;14.70;;;10.70;99.90;;;;;;5013127;28;20473;-55
2021/04/28 00:07:03;;;;;;;18.33;13.53;;;10.80;99.90;;;;;;5011220;28;20967;-55
2021/04/28 00:09:30;;;;;;;23.43;15.30;;;10.80;99.90;;;;;;5012639;28;20515;-55
2021/04/28 00:11:56;;;;;;;18.80;13.00;;;10.80;99.90;;;;;;5012167;28;20492;-55
2021/04/28 00:14:23;;;;;;;21.40;13.50;;;10.70;99.90;;;;;;5012411;28;20473;-56
2021/04/28 00:16:50;;;;;;;23.60;15.13;;;10.70;99.90;;;;;;5013367;28;20511;-55
2021/04/28 00:19:16;;;;;;;24.17;13.33;;;10.40;99.90;;;;;;5020159;28;20517;-55
2021/04/28 00:21:44;;;;;;;27.20;15.47;;;10.40;99.90;;;;;;5018395;28;20461;-55
2021/04/28 00:24:13;;;;;;;25.13;15.50;;;10.50;99.90;;;;;;5011175;28;20970;-55
2021/04/28 00:26:40;;;;;;;28.23;16.30;;;10.60;99.90;;;;;;5011370;28;20457;-55
2021/04/28 00:29:07;;;;;;;27.40;18.00;;;10.50;99.90;;;;;;5011830;28;20465;-55
2021/04/28 00:31:34;;;;;;;24.13;16.43;;;10.40;99.90;;;;;;5011034;28;20469;-56
2021/04/28 00:34:00;;;;;;;23.43;14.80;;;10.50;99.90;;;;;;5012301;28;20454;-55
2021/04/28 00:36:27;;;;;;;24.93;15.90;;;10.40;99.90;;;;;;5010913;28;20497;-55
2021/04/28 00:38:53;;;;;;;21.13;15.17;;;10.50;99.90;;;;;;5011373;28;20519;-55
2021/04/28 00:41:21;;;;;;;24.23;15.10;;;10.50;99.90;;;;;;5010860;28;20468;-55
2021/04/28 00:43:48;;;;;;;21.93;14.60;;;10.50;99.90;;;;;;5011250;28;20460;-55
2021/04/28 00:46:14;;;;;;;24.30;14.90;;;10.50;99.90;;;;;;5010911;28;20536;-55
2021/04/28 00:48:41;;;;;;;23.13;15.20;;;10.40;99.90;;;;;;5012104;28;20473;-55
2021/04/28 00:51:08;;;;;;;22.77;14.97;;;10.30;99.90;;;;;;5010401;28;20468;-55
2021/04/28 00:53:35;;;;;;;21.10;14.30;;;10.30;99.90;;;;;;5011930;28;20489;-55
2021/04/28 00:56:03;;;;;;;26.33;14.87;;;10.40;99.90;;;;;;5009040;28;21007;-55
2021/04/28 00:58:30;;;;;;;22.47;15.03;;;10.30;99.90;;;;;;5011121;28;20473;-55
2021/04/28 01:00:57;;;;;;;20.90;14.53;;;10.40;99.90;;;;;;5010426;28;20488;-55
2021/04/28 01:03:26;;;;;;;21.30;14.83;;;10.50;99.90;;;;;;5010951;28;20465;-55
2021/04/28 01:05:54;;;;;;;21.63;14.00;;;10.40;99.90;;;;;;5010871;28;20513;-55
2021/04/28 01:08:21;;;;;;;30.70;15.90;;;10.50;99.90;;;;;;5011124;28;20519;-55
2021/04/28 01:10:49;;;;;;;28.10;16.73;;;10.30;99.90;;;;;;5014666;28;20951;-55
2021/04/28 01:13:16;;;;;;;21.00;14.57;;;10.10;99.90;;;;;;5000478;28;20503;-55
2021/04/28 01:15:45;;;;;;;25.57;16.83;;;10.20;99.90;;;;;;5011513;28;20485;-55
2021/04/28 01:18:11;;;;;;;25.30;15.40;;;10.20;99.90;;;;;;5012489;28;20449;-55
2021/04/28 01:20:39;;;;;;;23.70;14.10;;;10.40;99.90;;;;;;5011185;28;20565;-55
2021/04/28 01:23:07;;;;;;;26.00;15.13;;;10.40;99.90;;;;;;5011499;28;20500;-55
2021/04/28 01:25:35;;;;;;;21.80;15.33;;;10.30;99.90;;;;;;5036266;23;20505;-50
2021/04/28 01:28:05;;;;;;;27.27;14.20;;;10.30;99.90;;;;;;5010479;28;20536;-50
2021/04/28 01:30:35;;;;;;;22.87;15.13;;;10.30;99.90;;;;;;5010970;28;20465;-49
2021/04/28 01:33:04;;;;;;;21.77;14.07;;;10.40;99.90;;;;;;5010256;28;20999;-50
2021/04/28 01:35:31;;;;;;;24.67;15.17;;;10.50;99.90;;;;;;5019292;28;20472;-49
2021/04/28 01:37:58;;;;;;;23.17;14.60;;;10.50;99.90;;;;;;5031240;28;20471;-50
2021/04/28 01:40:27;;;;;;;26.27;15.80;;;10.50;99.90;;;;;;5034089;28;20472;-50
2021/04/28 01:42:55;;;;;;;22.97;14.93;;;10.30;99.90;;;;;;5034033;28;20456;-50
2021/04/28 01:45:22;;;;;;;21.23;14.30;;;10.30;99.90;;;;;;5026617;28;20491;-49
2021/04/28 01:47:49;;;;;;;23.73;14.73;;;10.30;99.90;;;;;;5034151;28;20464;-50
2021/04/28 01:50:19;;;;;;;21.90;14.87;;;10.40;99.90;;;;;;5034215;28;20875;-50
2021/04/28 01:52:47;;;;;;;22.40;15.27;;;10.30;99.90;;;;;;5026637;28;20508;-49
2021/04/28 01:55:14;;;;;;;26.07;14.87;;;10.30;99.90;;;;;;5035301;28;20476;-48
2021/04/28 01:57:44;;;;;;;22.00;14.03;;;10.40;99.90;;;;;;5030705;28;20464;-49
2021/04/28 02:00:15;;;;;;;23.67;14.87;;;10.20;99.90;;;;;;5028195;28;20966;-49
2021/04/28 02:02:42;;;;;;;23.00;14.60;;;10.20;99.90;;;;;;5032625;28;20885;-49
2021/04/28 02:05:10;;;;;;;24.53;14.83;;;10.30;99.90;;;;;;5034185;28;20495;-48
2021/04/28 02:07:37;;;;;;;23.93;15.73;;;10.20;99.90;;;;;;5033404;28;20464;-48
2021/04/28 02:10:07;;;;;;;25.17;15.63;;;10.20;99.90;;;;;;5034216;28;20469;-49
2021/04/28 02:12:34;;;;;;;22.83;14.80;;;10.20;99.90;;;;;;5026135;28;20484;-49
2021/04/28 02:15:05;;;;;;;30.17;15.63;;;10.10;99.90;;;;;;5027105;28;20507;-49
2021/04/28 02:17:32;;;;;;;25.00;14.13;;;10.30;99.90;;;;;;5033644;28;20479;-49
2021/04/28 02:20:00;;;;;;;25.13;14.43;;;10.40;99.90;;;;;;5032575;28;20464;-49
2021/04/28 02:22:28;;;;;;;25.37;13.60;;;10.30;99.90;;;;;;5032813;28;20970;-48
2021/04/28 02:24:55;;;;;;;20.60;13.83;;;10.30;99.90;;;;;;5021850;28;20484;-48
2021/04/28 02:27:21;;;;;;;23.33;14.57;;;10.40;99.90;;;;;;5030489;28;20471;-50
2021/04/28 02:29:48;;;;;;;26.30;14.30;;;10.40;99.90;;;;;;5032228;28;20479;-49
2021/04/28 02:32:15;;;;;;;22.00;13.77;;;10.40;99.90;;;;;;5031969;28;20483;-50
2021/04/28 02:34:42;;;;;;;19.20;13.13;;;10.30;99.90;;;;;;5031195;28;21008;-49
2021/04/28 02:37:10;;;;;;;21.20;13.43;;;10.30;99.90;;;;;;5032791;28;20514;-50
2021/04/28 02:39:42;;;;;;;20.53;13.10;;;10.20;99.90;;;;;;5032016;28;20468;-50
2021/04/28 02:42:09;;;;;;;20.87;13.00;;;10.10;99.90;;;;;;5033971;28;20876;-49
2021/04/28 02:44:37;;;;;;;21.77;12.90;;;10.10;99.90;;;;;;5031963;28;20857;-49
2021/04/28 02:47:07;;;;;;;20.17;12.80;;;10.00;99.90;;;;;;5027612;28;20444;-49
2021/04/28 02:49:35;;;;;;;22.97;13.10;;;10.00;99.90;;;;;;5033742;28;20954;-49
2021/04/28 02:52:02;;;;;;;20.23;13.33;;;10.10;99.90;;;;;;5029758;28;21028;-49
2021/04/28 02:54:29;;;;;;;22.07;12.97;;;10.20;99.90;;;;;;5030877;28;20468;-49
2021/04/28 02:56:56;;;;;;;20.97;12.80;;;10.10;99.90;;;;;;5032998;28;20995;-49
2021/04/28 02:59:24;;;;;;;20.17;13.53;;;10.20;99.90;;;;;;5025475;28;20456;-49
2021/04/28 03:01:51;;;;;;;21.43;13.87;;;10.10;99.90;;;;;;5028899;28;20468;-49
2021/04/28 03:04:19;;;;;;;23.93;14.20;;;10.00;99.90;;;;;;5028509;28;20464;-49
2021/04/28 03:06:46;;;;;;;23.77;14.10;;;10.00;99.90;;;;;;5029910;28;20492;-49
2021/04/28 03:09:14;;;;;;;19.87;12.93;;;9.90;99.90;;;;;;5028905;28;20472;-49
2021/04/28 03:11:42;;;;;;;20.23;12.90;;;9.80;99.90;;;;;;5022215;28;20453;-48
2021/04/28 03:14:09;;;;;;;25.00;13.13;;;9.90;99.90;;;;;;5031980;28;20467;-48
2021/04/28 03:16:36;;;;;;;23.70;13.00;;;9.90;99.90;;;;;;5030787;28;20484;-49
2021/04/28 03:19:04;;;;;;;21.50;14.30;;;9.80;99.90;;;;;;5032593;28;20493;-49
2021/04/28 03:21:34;;;;;;;26.53;14.40;;;9.80;99.90;;;;;;5029749;28;20479;-49
2021/04/28 03:24:03;;;;;;;17.53;12.60;;;9.80;99.90;;;;;;5028371;28;20436;-48
2021/04/28 03:26:29;;;;;;;24.57;14.43;;;9.80;99.90;;;;;;5030749;28;20507;-49
2021/04/28 03:28:58;;;;;;;19.27;12.60;;;9.70;99.90;;;;;;5031648;28;20465;-49
2021/04/28 03:31:24;;;;;;;20.60;14.30;;;9.80;99.90;;;;;;5033165;28;20457;-49
2021/04/28 03:33:51;;;;;;;15.17;11.87;;;9.80;99.90;;;;;;5030730;28;20492;-48
2021/04/28 03:36:18;;;;;;;21.03;13.23;;;9.80;99.90;;;;;;5025434;28;20484;-49
2021/04/28 03:38:45;;;;;;;25.40;13.83;;;9.80;99.90;;;;;;5030374;28;20780;-48
2021/04/28 03:41:12;;;;;;;19.47;12.43;;;9.80;99.90;;;;;;5033021;28;20449;-49
2021/04/28 03:43:39;;;;;;;21.00;12.80;;;9.80;99.90;;;;;;5028863;28;20457;-49
2021/04/28 03:46:05;;;;;;;19.23;12.40;;;10.00;99.90;;;;;;5032879;28;20472;-48
2021/04/28 03:48:32;;;;;;;18.87;12.40;;;9.90;99.90;;;;;;5032184;28;20469;-49
2021/04/28 03:50:58;;;;;;;22.17;12.87;;;10.00;99.90;;;;;;5024743;28;20445;-50
2021/04/28 03:53:25;;;;;;;17.90;13.10;;;9.90;99.90;;;;;;5031328;28;20495;-48
2021/04/28 03:55:52;;;;;;;16.37;11.40;;;10.00;99.90;;;;;;5031269;28;20941;-49
2021/04/28 03:58:19;;;;;;;19.93;12.40;;;10.00;99.90;;;;;;5028849;28;20468;-49
2021/04/28 04:00:45;;;;;;;18.90;12.40;;;9.90;99.90;;;;;;5028457;28;20495;-49
2021/04/28 04:03:12;;;;;;;20.33;12.10;;;10.00;99.90;;;;;;5031985;28;20460;-48
2021/04/28 04:05:39;;;;;;;19.03;13.33;;;10.10;99.90;;;;;;5021572;28;20474;-50
2021/04/28 04:08:05;;;;;;;18.87;13.20;;;10.00;99.90;;;;;;5025014;28;20814;-49
2021/04/28 04:10:32;;;;;;;18.47;12.07;;;10.00;99.90;;;;;;5032219;28;20888;-50
2021/04/28 04:12:58;;;;;;;18.03;12.80;;;10.10;99.90;;;;;;5032042;28;20487;-49
2021/04/28 04:15:26;;;;;;;20.20;12.30;;;10.20;99.90;;;;;;5032049;28;20997;-49
2021/04/28 04:17:52;;;;;;;18.87;13.03;;;10.20;99.90;;;;;;5031875;28;20468;-49
2021/04/28 04:20:19;;;;;;;19.70;12.70;;;10.10;99.90;;;;;;5025044;28;20464;-49
2021/04/28 04:22:45;;;;;;;19.07;13.57;;;10.00;99.90;;;;;;5024297;28;20465;-49
2021/04/28 04:25:12;;;;;;;25.63;12.83;;;10.00;99.90;;;;;;5031581;28;20484;-49
2021/04/28 04:27:40;;;;;;;21.77;13.17;;;10.10;99.90;;;;;;5026715;28;20469;-50
2021/04/28 04:30:08;;;;;;;20.37;12.80;;;10.10;99.90;;;;;;5023916;28;20464;-51
2021/04/28 04:32:36;;;;;;;18.60;12.73;;;10.20;99.90;;;;;;5027733;28;20488;-51
2021/04/28 04:35:03;;;;;;;18.43;12.07;;;10.40;99.90;;;;;;5024085;28;20484;-50
2021/04/28 04:37:30;;;;;;;23.77;13.80;;;10.60;99.90;;;;;;5024078;28;20608;-50
2021/04/28 04:39:56;;;;;;;19.03;13.50;;;10.70;99.90;;;;;;5023840;28;20472;-50
2021/04/28 04:42:23;;;;;;;22.07;14.17;;;10.60;99.90;;;;;;5025894;28;20463;-51
2021/04/28 04:44:50;;;;;;;16.10;13.00;;;10.70;99.90;;;;;;5027166;28;20496;-51
2021/04/28 04:47:17;;;;;;;17.53;12.23;;;11.00;99.90;;;;;;5027452;28;20460;-51
2021/04/28 04:49:44;;;;;;;20.77;14.00;;;11.00;99.90;;;;;;5023752;28;20468;-51
2021/04/28 04:52:12;;;;;;;18.23;13.10;;;10.40;99.90;;;;;;5023744;28;22287;-51
2021/04/28 04:54:38;;;;;;;21.77;12.67;;;10.50;99.90;;;;;;5024239;28;20456;-51
2021/04/28 04:57:06;;;;;;;20.50;12.90;;;10.90;99.90;;;;;;5024024;28;20464;-53
2021/04/28 04:59:32;;;;;;;18.60;12.50;;;11.10;99.90;;;;;;5024447;28;20550;-52
2021/04/28 05:01:59;;;;;;;20.80;12.17;;;11.10;99.90;;;;;;5024868;28;20460;-52
2021/04/28 05:04:26;;;;;;;20.40;12.83;;;10.90;99.90;;;;;;5023274;28;20460;-52
2021/04/28 05:06:53;;;;;;;18.57;12.60;;;11.00;99.90;;;;;;5025971;28;20487;-51
2021/04/28 05:09:21;;;;;;;18.07;12.57;;;10.90;99.90;;;;;;5026173;28;20482;-54
2021/04/28 05:11:47;;;;;;;20.73;13.33;;;11.00;99.90;;;;;;5026151;28;20547;-53
2021/04/28 05:14:14;;;;;;;21.63;12.87;;;11.10;99.90;;;;;;5022367;28;20634;-52
2021/04/28 05:16:42;;;;;;;19.20;13.67;;;11.20;99.90;;;;;;5023968;28;20491;-50
2021/04/28 05:19:08;;;;;;;21.40;12.63;;;11.70;99.90;;;;;;5023081;28;20915;-53
2021/04/28 05:21:35;;;;;;;17.70;11.77;;;12.60;99.90;;;;;;5022579;28;20468;-51
2021/04/28 05:24:02;;;;;;;19.60;12.20;;;13.30;99.90;;;;;;5022626;28;20458;-51
2021/04/28 05:26:29;;;;;;;17.53;12.67;;;13.60;99.90;;;;;;5022858;28;20492;-52
2021/04/28 05:28:56;;;;;;;19.60;11.93;;;14.20;99.90;;;;;;5022772;28;20579;-54
2021/04/28 05:31:23;;;;;;;19.67;12.70;;;14.30;99.90;;;;;;5024039;28;20457;-52
2021/04/28 05:33:50;;;;;;;21.83;14.03;;;14.10;99.90;;;;;;5023777;28;20870;-52
2021/04/28 05:36:16;;;;;;;19.53;14.37;;;14.00;99.90;;;;;;5023462;28;20492;-52
2021/04/28 05:38:43;;;;;;;18.50;13.00;;;14.00;99.90;;;;;;5019889;28;20461;-54
2021/04/28 05:41:10;;;;;;;17.00;12.67;;;14.00;99.90;;;;;;5022511;28;20468;-53
2021/04/28 05:43:38;;;;;;;25.53;13.60;;;13.80;99.90;;;;;;5028292;28;20468;-51
2021/04/28 05:46:05;;;;;;;19.97;13.00;;;13.60;99.90;;;;;;5031522;28;20517;-52
2021/04/28 05:48:32;;;;;;;18.30;12.47;;;13.20;99.90;;;;;;5026190;28;20495;-52
2021/04/28 05:50:58;;;;;;;20.27;12.87;;;13.50;99.90;;;;;;5022957;28;20973;-51
2021/04/28 05:53:25;;;;;;;16.53;12.70;;;14.10;99.90;;;;;;5024765;28;20535;-52
2021/04/28 05:55:51;;;;;;;16.10;12.07;;;14.50;99.90;;;;;;5025211;28;20908;-54
2021/04/28 05:58:19;;;;;;;19.40;12.43;;;14.60;99.90;;;;;;5025127;28;20487;-53
2021/04/28 06:00:45;;;;;;;15.83;11.70;;;14.60;99.90;;;;;;5030214;28;20460;-54
2021/04/28 06:03:12;;;;;;;17.73;11.97;;;14.90;99.90;;;;;;5030219;28;20838;-53
2021/04/28 06:05:38;;;;;;;18.17;12.43;;;15.70;99.90;;;;;;5027238;28;20860;-51
2021/04/28 06:08:05;;;;;;;20.27;12.77;;;16.80;99.90;;;;;;5026489;28;20461;-52
2021/04/28 06:10:32;;;;;;;17.07;12.67;;;16.90;99.90;;;;;;5031417;28;20460;-54
2021/04/28 06:12:58;;;;;;;22.40;12.97;;;17.10;99.70;;;;;;5031220;28;20484;-52
2021/04/28 06:15:26;;;;;;;15.23;12.50;;;17.50;98.70;;;;;;5031144;28;20479;-53
2021/04/28 06:17:55;;;;;;;17.20;12.03;;;18.30;98.70;;;;;;5031054;28;20460;-53
2021/04/28 06:20:21;;;;;;;16.63;13.27;;;18.70;96.10;;;;;;5031057;28;20466;-53
2021/04/28 06:22:48;;;;;;;18.33;12.30;;;17.90;97.80;;;;;;5033801;28;20444;-52
2021/04/28 06:25:15;;;;;;;17.50;12.73;;;18.20;96.60;;;;;;5034831;28;20480;-54
2021/04/28 06:27:42;;;;;;;18.10;13.40;;;17.40;96.20;;;;;;5034678;28;20440;-53
2021/04/28 06:30:10;;;;;;;20.50;13.30;;;17.30;97.90;;;;;;5034859;28;20830;-54
2021/04/28 06:32:41;;;;;;;19.67;12.97;;;18.00;96.40;;;;;;5034656;28;20495;-53
2021/04/28 06:35:09;;;;;;;21.40;12.97;;;18.70;94.90;;;;;;5034520;28;20472;-53
2021/04/28 06:37:35;;;;;;;14.27;11.43;;;19.10;94.10;;;;;;5034570;28;20831;-53
2021/04/28 06:40:03;;;;;;;24.63;12.67;;;19.10;94.20;;;;;;5034750;28;20518;-53
2021/04/28 06:42:29;;;;;;;20.60;13.50;;;17.60;96.10;;;;;;5034450;28;20448;-53
2021/04/28 06:44:57;;;;;;;18.47;12.90;;;17.00;96.70;;;;;;5034321;28;20986;-52
2021/04/28 06:47:24;;;;;;;20.53;13.67;;;16.20;98.50;;;;;;5025420;28;20840;-52
2021/04/28 06:49:53;;;;;;;18.17;13.40;;;15.40;98.10;;;;;;5033762;28;20506;-51
2021/04/28 06:52:20;;;;;;;18.47;13.07;;;15.30;98.90;;;;;;5034042;28;20530;-52
2021/04/28 06:54:46;;;;;;;19.03;14.00;;;14.40;99.90;;;;;;5033513;28;20462;-52
2021/04/28 06:57:13;;;;;;;17.60;13.43;;;13.80;99.90;;;;;;5033865;28;20449;-52
2021/04/28 06:59:39;;;;;;;17.87;13.27;;;13.80;99.90;;;;;;5034100;28;20985;-53
2021/04/28 07:02:06;;;;;;;18.90;12.30;;;13.60;99.90;;;;;;5034225;28;20449;-53
2021/04/28 07:04:32;;;;;;;22.00;13.50;;;14.20;99.90;;;;;;5032289;28;20522;-52
2021/04/28 07:07:00;;;;;;;23.13;12.90;;;15.10;99.90;;;;;;5033393;28;20526;-51
2021/04/28 07:09:26;;;;;;;20.27;13.30;;;15.00;99.90;;;;;;5033052;28;20449;-52
2021/04/28 07:11:53;;;;;;;17.27;12.53;;;15.00;99.80;;;;;;5033738;28;20844;-52
2021/04/28 07:14:19;;;;;;;15.80;11.73;;;15.30;99.70;;;;;;5033511;28;20480;-52
2021/04/28 07:16:46;;;;;;;20.23;13.40;;;15.40;99.10;;;;;;5033523;28;20472;-53
2021/04/28 07:19:13;;;;;;;21.75;12.73;;;14.90;99.30;;;;;;5032234;28;20996;-52
2021/04/28 07:21:39;;;;;;;15.83;12.50;;;14.60;99.60;;;;;;5029474;28;20202;-52
2021/04/28 07:24:07;;;;;;;22.50;13.17;;;14.90;99.60;;;;;;5032695;28;20452;-52
2021/04/28 07:26:34;;;;;;;18.77;12.90;;;15.10;99.20;;;;;;5055059;23;20500;-54
2021/04/28 07:29:02;;;;;;;16.60;12.30;;;15.20;99.00;;;;;;5032687;28;20895;-55
2021/04/28 07:31:30;;;;;;;18.83;13.20;;;15.20;99.50;;;;;;5032862;28;20460;-54
2021/04/28 07:33:57;;;;;;;19.60;12.93;;;15.00;99.10;;;;;;5030497;28;20480;-54
2021/04/28 07:36:23;;;;;;;23.13;13.13;;;14.90;99.00;;;;;;5021643;28;20480;-52
2021/04/28 07:38:50;;;;;;;17.50;11.70;;;14.50;98.90;;;;;;5013581;28;20446;-54
2021/04/28 07:41:17;;;;;;;19.30;12.63;;;14.20;99.40;;;;;;5013567;28;20449;-54
2021/04/28 07:43:44;;;;;;;22.23;13.13;;;14.80;98.70;;;;;;5013456;28;20473;-54
2021/04/28 07:46:11;;;;;;;15.10;11.90;;;15.30;98.80;;;;;;5012993;28;20843;-53
2021/04/28 07:48:37;;;;;;;15.23;12.13;;;16.50;97.70;;;;;;5012917;28;20453;-53
2021/04/28 07:51:04;;;;;;;16.70;12.20;;;17.20;97.40;;;;;;5013302;28;20947;-54
2021/04/28 07:53:31;;;;;;;17.80;12.63;;;18.30;96.20;;;;;;5012980;28;20485;-54
2021/04/28 07:55:57;;;;;;;16.80;12.67;;;18.70;95.10;;;;;;5013136;28;20470;-54
2021/04/28 07:58:25;;;;;;;18.93;12.80;;;19.00;94.70;;;;;;5012960;28;20454;-54
2021/04/28 08:00:51;;;;;;;17.90;13.10;;;19.70;94.50;;;;;;5012873;28;20453;-55
2021/04/28 08:03:18;;;;;;;15.27;11.63;;;18.50;94.20;;;;;;5013046;28;20948;-55
2021/04/28 08:05:44;;;;;;;17.33;11.87;;;17.90;95.30;;;;;;5014143;28;20554;-55
2021/04/28 08:08:11;;;;;;;18.37;12.10;;;18.60;94.30;;;;;;5015082;28;20450;-54
2021/04/28 08:10:37;;;;;;;15.53;11.37;;;18.80;94.00;;;;;;5012791;28;20484;-55
2021/04/28 08:13:08;;;;;;;12.97;11.17;;;19.50;93.30;;;;;;5012528;28;21007;-55
2021/04/28 08:15:36;;;;;;;14.90;11.50;;;20.20;91.80;;;;;;5012721;28;20481;-55
2021/04/28 08:18:03;;;;;;;13.20;11.07;;;20.40;91.50;;;;;;5012512;28;20958;-54
2021/04/28 08:20:29;;;;;;;17.53;12.17;;;20.30;91.30;;;;;;5012662;28;21002;-54
2021/04/28 08:22:56;;;;;;;13.07;11.03;;;20.20;91.50;;;;;;5011928;28;20453;-55
2021/04/28 08:25:22;;;;;;;14.00;11.40;;;19.90;91.00;;;;;;5012253;28;20445;-55
2021/04/28 08:27:49;;;;;;;16.43;12.40;;;20.50;91.00;;;;;;5016191;28;20511;-55
2021/04/28 08:30:17;;;;;;;17.30;13.00;;;20.50;91.00;;;;;;5013951;28;20543;-55
2021/04/28 08:32:48;;;;;;;13.10;10.97;;;20.60;90.20;;;;;;5013436;28;20477;-55
2021/04/28 08:35:15;;;;;;;18.37;11.63;;;20.30;90.20;;;;;;5013531;28;21010;-55
2021/04/28 08:37:44;;;;;;;16.47;11.97;;;20.70;90.20;;;;;;5031922;28;20507;-55
2021/04/28 08:40:11;;;;;;;15.70;12.63;;;20.40;90.80;;;;;;5027111;28;20944;-55
2021/04/28 08:42:38;;;;;;;14.97;11.10;;;20.00;87.20;;;;;;5012262;28;20445;-54
2021/04/28 08:45:06;;;;;;;16.67;11.67;;;20.10;87.90;;;;;;5013380;28;20455;-55
2021/04/28 08:47:33;;;;;;;15.80;12.43;;;19.40;87.90;;;;;;5013410;28;20453;-55
2021/04/28 08:50:00;;;;;;;19.97;12.10;;;19.20;86.80;;;;;;5024113;28;20445;-54
2021/04/28 08:52:27;;;;;;;16.30;11.57;;;18.90;88.60;;;;;;5012159;28;20989;-54
2021/04/28 08:54:54;;;;;;;14.87;11.50;;;18.90;88.20;;;;;;5011939;28;20444;-54
2021/04/28 08:57:20;;;;;;;15.90;12.37;;;19.40;87.40;;;;;;5006317;28;20476;-54
2021/04/28 08:59:48;;;;;;;15.47;12.17;;;19.60;87.90;;;;;;5012103;28;20450;-56
2021/04/28 09:02:17;;;;;;;15.27;11.73;;;19.70;86.20;;;;;;5012117;28;21025;-55
2021/04/28 09:05:01;;;;;;;15.87;12.37;;;19.70;88.40;;;;;;5012074;28;20454;-54
2021/04/28 09:07:30;;;;;;;17.60;12.67;;;19.50;87.10;;;;;;5012736;28;20473;-54
2021/04/28 09:10:01;;;;;;;16.30;12.03;;;19.10;86.80;;;;;;5004808;28;20540;-53
2021/04/28 09:12:27;;;;;;;16.70;12.30;;;19.00;88.80;;;;;;5011794;28;20460;-53
2021/04/28 09:14:54;;;;;;;18.17;13.60;;;18.30;90.20;;;;;;5012266;28;20449;-53
2021/04/28 09:17:20;;;;;;;18.00;12.20;;;17.60;91.00;;;;;;5011818;28;20852;-54
2021/04/28 09:19:53;;;;;;;18.97;12.53;;;17.70;90.70;;;;;;5011523;28;20460;-54
2021/04/28 09:22:21;;;;;;;18.40;12.63;;;18.10;90.30;;;;;;5012100;28;20501;-55
2021/04/28 09:24:51;;;;;;;20.43;12.80;;;17.70;92.30;;;;;;5011583;28;20986;-54
2021/04/28 09:27:28;;;;;;;19.93;12.60;;;17.80;91.20;;;;;;5011546;28;20477;-54
2021/04/28 09:29:54;;;;;;;18.30;11.90;;;17.90;90.80;;;;;;5011681;28;20453;-54
2021/04/28 09:32:30;;;;;;;21.70;13.20;;;18.10;90.80;;;;;;5011552;28;20588;-53
2021/04/28 09:35:13;;;;;;;17.50;12.70;;;17.70;92.50;;;;;;5011854;28;20495;-53
2021/04/28 09:37:51;;;;;;;16.47;12.57;;;17.30;92.00;;;;;;5011180;28;20881;-54
2021/04/28 09:40:19;;;;;;;19.00;11.90;;;17.90;91.10;;;;;;5011524;28;20437;-54
2021/04/28 09:42:53;;;;;;;16.93;12.60;;;18.10;92.20;;;;;;5011448;28;20446;-54
2021/04/28 09:45:43;;;;;;;17.57;12.33;;;17.80;91.20;;;;;;5011591;28;20448;-55
2021/04/28 09:48:11;;;;;;;18.10;12.80;;;17.70;90.60;;;;;;5011256;28;20446;-55
2021/04/28 09:50:38;;;;;;;19.70;13.57;;;17.90;90.50;;;;;;5018625;28;20448;-55
2021/04/28 09:53:05;;;;;;;19.10;13.30;;;17.30;92.30;;;;;;5015224;28;20472;-54
2021/04/28 09:55:45;;;;;;;20.80;13.43;;;16.20;93.90;;;;;;5011868;28;20477;-54
2021/04/28 09:58:46;;;;;;;20.00;12.90;;;16.30;94.00;;;;;;5018655;28;20457;-55
2021/04/28 10:01:14;;;;;;;20.03;12.97;;;17.00;92.80;;;;;;4996020;28;20454;-55
2021/04/28 10:03:44;;;;;;;18.90;13.87;;;17.30;92.80;;;;;;5009557;28;20453;-54
2021/04/28 10:06:11;;;;;;;19.20;14.00;;;17.30;95.20;;;;;;5022530;28;20496;-54
2021/04/28 10:08:37;;;;;;;18.57;14.27;;;17.00;94.10;;;;;;5015443;28;20461;-56
2021/04/28 10:11:05;;;;;;;23.23;14.23;;;17.50;93.50;;;;;;5015509;28;20457;-55
2021/04/28 10:13:43;;;;;;;18.07;13.87;;;17.90;92.40;;;;;;5032801;28;20476;-55
2021/04/28 10:16:10;;;;;;;18.47;14.03;;;17.90;91.80;;;;;;5033255;28;21084;-55
2021/04/28 10:18:37;;;;;;;18.23;14.33;;;17.50;93.60;;;;;;5015320;28;20453;-54
2021/04/28 10:21:04;;;;;;;21.20;13.60;;;17.30;93.70;;;;;;5015195;28;20955;-54
2021/04/28 10:23:32;;;;;;;22.30;14.80;;;17.80;92.80;;;;;;5015237;28;20457;-55
2021/04/28 10:25:58;;;;;;;21.37;13.77;;;18.40;92.30;;;;;;5014632;28;20487;-55
2021/04/28 10:28:26;;;;;;;20.83;15.00;;;18.50;92.30;;;;;;5014761;28;20449;-55
2021/04/28 10:30:55;;;;;;;18.10;14.17;;;19.00;91.40;;;;;;5014267;28;20839;-55
2021/04/28 10:33:25;;;;;;;19.23;13.87;;;18.90;91.80;;;;;;4995286;28;20490;-55
2021/04/28 10:35:52;;;;;;;19.10;14.30;;;19.20;92.10;;;;;;5026203;28;20819;-55
2021/04/28 10:38:22;;;;;;;18.90;14.30;;;19.40;92.10;;;;;;5014686;28;20441;-54
2021/04/28 10:40:48;;;;;;;19.80;15.23;;;19.00;92.30;;;;;;5015086;28;21160;-54
2021/04/28 10:43:17;;;;;;;21.50;14.70;;;19.20;93.00;;;;;;5014783;28;20452;-54
2021/04/28 10:45:44;;;;;;;19.67;14.27;;;19.00;95.00;;;;;;5014975;28;20469;-55
2021/04/28 10:48:12;;;;;;;18.60;14.07;;;19.90;92.60;;;;;;5014374;28;20445;-55
2021/04/28 10:50:40;;;;;;;20.77;15.25;;;20.90;91.50;;;;;;5014495;28;20451;-55
2021/04/28 10:53:17;;;;;;;18.30;14.40;;;21.70;89.30;;;;;;5012529;28;20227;-55
2021/04/28 10:55:55;;;;;;;20.10;15.50;;;20.90;91.60;;;;;;5014160;28;20473;-55
2021/04/28 10:58:35;;;;;;;16.57;13.90;;;20.40;91.70;;;;;;5014358;28;20591;-54
2021/04/28 11:01:16;;;;;;;18.77;13.57;;;20.40;93.10;;;;;;5014416;28;20947;-55
2021/04/28 11:03:48;;;;;;;20.33;14.73;;;20.90;92.70;;;;;;5016655;28;20456;-55
2021/04/28 11:06:37;;;;;;;17.83;13.97;;;20.10;92.50;;;;;;5013957;28;20516;-55
2021/04/28 11:09:12;;;;;;;18.57;13.33;;;20.30;91.50;;;;;;5014933;28;20461;-55
2021/04/28 11:11:42;;;;;;;15.23;13.03;;;20.50;91.10;;;;;;5014237;28;20946;-55
2021/04/28 11:14:29;;;;;;;16.80;13.27;;;20.40;91.40;;;;;;5018724;28;20476;-56
2021/04/28 11:16:58;;;;;;;17.77;13.63;;;20.30;91.70;;;;;;5033938;28;20530;-55
2021/04/28 11:19:27;;;;;;;18.03;13.57;;;19.90;91.90;;;;;;5027957;28;20446;-55
2021/04/28 11:22:28;;;;;;;19.93;14.67;;;20.00;92.60;;;;;;5013852;28;20833;-54
2021/04/28 11:25:04;;;;;;;16.97;13.03;;;20.00;91.90;;;;;;4953069;29;20538;-55
2021/04/28 11:27:57;;;;;;;19.00;13.57;;;20.10;92.00;;;;;;4952874;28;21088;-55
2021/04/28 11:30:38;;;;;;;26.70;14.37;;;20.40;93.60;;;;;;4990995;28;20450;-55
2021/04/28 11:33:14;;;;;;;15.80;12.90;;;20.40;91.30;;;;;;5013509;28;20481;-55
2021/04/28 11:35:43;;;;;;;19.07;13.50;;;20.30;91.40;;;;;;5013393;28;20505;-55
2021/04/28 11:38:12;;;;;;;19.30;13.87;;;20.30;91.80;;;;;;5013127;28;20979;-56
2021/04/28 11:40:49;;;;;;;15.80;12.13;;;20.10;92.90;;;;;;5026188;28;20457;-56
2021/04/28 11:43:18;;;;;;;16.40;12.27;;;20.20;91.60;;;;;;5003503;28;20445;-56
2021/04/28 11:45:45;;;;;;;17.67;12.73;;;20.10;91.10;;;;;;5013130;28;20584;-56
2021/04/28 11:48:17;;;;;;;16.60;12.37;;;19.80;91.10;;;;;;5013098;28;20457;-57
2021/04/28 11:50:54;;;;;;;15.50;12.90;;;19.80;92.50;;;;;;5013177;28;20475;-56
2021/04/28 11:53:21;;;;;;;14.70;12.10;;;19.50;92.80;;;;;;5013375;28;20507;-55
2021/04/28 11:55:48;;;;;;;16.03;10.77;;;19.70;93.30;;;;;;5013195;28;20484;-56
2021/04/28 11:58:22;;;;;;;16.53;12.07;;;19.60;94.10;;;;;;5012758;28;20951;-55
2021/04/28 12:00:50;;;;;;;19.93;12.60;;;19.20;93.90;;;;;;4993647;28;20469;-55
2021/04/28 12:03:17;;;;;;;13.30;9.73;;;18.90;93.00;;;;;;4993461;28;20574;-55
2021/04/28 12:05:44;;;;;;;13.63;10.60;;;18.90;93.00;;;;;;4996008;28;20481;-55
2021/04/28 12:08:10;;;;;;;13.83;9.63;;;19.20;94.10;;;;;;5012861;28;20947;-55
2021/04/28 12:10:37;;;;;;;15.37;10.80;;;19.30;92.60;;;;;;5012597;28;20480;-55
2021/04/28 12:13:13;;;;;;;12.70;10.50;;;19.40;94.40;;;;;;5013005;28;20496;-55
2021/04/28 12:15:39;;;;;;;10.50;9.10;;;18.90;94.10;;;;;;5012983;28;20473;-55
2021/04/28 12:18:07;;;;;;;10.27;8.23;;;19.10;92.70;;;;;;5012568;28;20463;-56
2021/04/28 12:20:35;;;;;;;8.43;7.13;;;19.50;92.40;;;;;;5011980;28;20959;-56
2021/04/28 12:23:01;;;;;;;9.27;7.60;;;19.70;92.50;;;;;;5011705;28;20450;-55
2021/04/28 12:25:27;;;;;;;9.17;7.90;;;19.60;92.60;;;;;;5027819;28;20481;-56
2021/04/28 12:27:54;;;;;;;10.00;7.60;;;19.50;93.90;;;;;;5032250;28;20456;-55
2021/04/28 12:30:23;;;;;;;12.50;8.60;;;19.20;93.20;;;;;;5030921;28;20452;-55
2021/04/28 12:32:52;;;;;;;13.90;8.80;;;19.00;94.50;;;;;;5006535;28;20461;-55
2021/04/28 12:35:20;;;;;;;12.73;10.53;;;19.20;94.70;;;;;;5012417;28;20959;-55